Terminal Aerodrome Forecast
Issued by NWS

Home | Current Version | Previous Version | Text Only | Print | Product List | Glossary On
Versions: 1 2 3 4 5 6 7 8 9 10 11 12 13
000
FTAK31 PAJN 251900 AAA
TAFAPG
TAF AMD
PAPG 251925Z 2519/2618 VRB03KT P6SM BKN005
     FM252100 05005KT P6SM FEW008
     FM260300 VRB03KT P6SM SKC
     FM260700 00000KT P6SM BCFG SCT004
     FM261000 00000KT 1SM BR BKN003
      AMD LTD TO CLD VIS AND WIND 2606/2615=

USA.gov is the U.S. government's official web portal to all federal, state and local government web resources and services.